THY3FJ LTFM-UGSB
Flight info
| Callsign | THY3FJ |
|---|---|
| Flight time | 1h 35m |
| Altitude | 37000 |
| Route | EKAWE UT641 ERMUP/N0456F390 UT641 ABSAX UN743 GAKSU UT310 SIN UN644 ROLIN |
| Aircraft | B738/M-SDE1FGHIJ1RWXYZ/LB1 |
Departure
| Time | 2026-05-05 07:59 |
|---|---|
| Airport | İstanbul Airport (LTFM) |
Arrival
| Time | 2026-05-05 09:34 |
|---|---|
| Airport | Alexander Kartveli Batumi International Airport (UGSB) |
| Time | Latitude | Longitude | Altitude | Speed | Heading |
|---|---|---|---|---|---|
| 2026-05-05 07:42 | 41.26548 | 28.73472 | 333 ft | 0 kts | 71° |
| 2026-05-05 07:51 | 41.26548 | 28.73470 | 333 ft | 1 kts | 71° |
| 2026-05-05 07:51 | 41.26542 | 28.73449 | 333 ft | 3 kts | 67° |
| 2026-05-05 07:51 | 41.26534 | 28.73425 | 333 ft | 3 kts | 60° |
| 2026-05-05 07:52 | 41.26523 | 28.73402 | 333 ft | 3 kts | 49° |
| 2026-05-05 07:52 | 41.26509 | 28.73386 | 333 ft | 3 kts | 21° |
| 2026-05-05 07:52 | 41.26495 | 28.73383 | 333 ft | 1 kts | 341° |
| 2026-05-05 07:52 | 41.26489 | 28.73385 | 333 ft | 0 kts | 341° |
| 2026-05-05 07:55 | 41.26499 | 28.73380 | 333 ft | 3 kts | 341° |
| 2026-05-05 07:55 | 41.26529 | 28.73367 | 333 ft | 6 kts | 342° |
| 2026-05-05 07:55 | 41.26578 | 28.73345 | 333 ft | 8 kts | 332° |
| 2026-05-05 07:56 | 41.26599 | 28.73275 | 333 ft | 9 kts | 271° |
| 2026-05-05 07:56 | 41.26598 | 28.73189 | 333 ft | 9 kts | 269° |
| 2026-05-05 07:56 | 41.26597 | 28.73102 | 333 ft | 10 kts | 269° |
| 2026-05-05 07:56 | 41.26595 | 28.73006 | 333 ft | 11 kts | 269° |
| 2026-05-05 07:57 | 41.26594 | 28.72903 | 333 ft | 11 kts | 269° |
| 2026-05-05 07:57 | 41.26592 | 28.72794 | 333 ft | 12 kts | 269° |
| 2026-05-05 07:57 | 41.26591 | 28.72680 | 333 ft | 12 kts | 269° |
| 2026-05-05 07:57 | 41.26590 | 28.72567 | 333 ft | 12 kts | 269° |
| 2026-05-05 07:58 | 41.26628 | 28.72502 | 333 ft | 10 kts | 356° |
| 2026-05-05 07:58 | 41.26705 | 28.72500 | 333 ft | 15 kts | 359° |
| 2026-05-05 07:58 | 41.26941 | 28.72495 | 333 ft | 64 kts | 358° |
| 2026-05-05 07:58 | 41.27603 | 28.72479 | 333 ft | 125 kts | 358° |
| 2026-05-05 07:59 | 41.28634 | 28.72454 | 509 ft | 160 kts | 359° |
| 2026-05-05 07:59 | 41.29746 | 28.72433 | 1325 ft | 159 kts | 0° |
| 2026-05-05 07:59 | 41.30843 | 28.72429 | 2152 ft | 156 kts | 2° |
| 2026-05-05 07:59 | 41.31948 | 28.72468 | 2819 ft | 162 kts | 1° |
| 2026-05-05 08:00 | 41.32697 | 28.72484 | 3293 ft | 163 kts | 360° |
| 2026-05-05 08:00 | 41.33864 | 28.72501 | 3859 ft | 176 kts | 360° |
| 2026-05-05 08:00 | 41.35168 | 28.72500 | 4242 ft | 197 kts | 359° |
| 2026-05-05 08:00 | 41.36624 | 28.72481 | 4548 ft | 222 kts | 358° |
| 2026-05-05 08:01 | 41.38232 | 28.72256 | 5046 ft | 240 kts | 348° |
| 2026-05-05 08:01 | 41.39819 | 28.71499 | 5814 ft | 248 kts | 338° |
| 2026-05-05 08:01 | 41.41411 | 28.70524 | 6563 ft | 254 kts | 337° |
| 2026-05-05 08:01 | 41.43010 | 28.69502 | 7416 ft | 257 kts | 337° |
| 2026-05-05 08:02 | 41.44625 | 28.68468 | 8270 ft | 259 kts | 337° |
| 2026-05-05 08:02 | 41.46253 | 28.67425 | 9122 ft | 260 kts | 337° |
| 2026-05-05 08:02 | 41.47892 | 28.66375 | 9911 ft | 264 kts | 338° |
| 2026-05-05 08:02 | 41.49558 | 28.65306 | 10639 ft | 269 kts | 338° |
| 2026-05-05 08:03 | 41.51296 | 28.64191 | 11107 ft | 286 kts | 338° |
| 2026-05-05 08:03 | 41.53152 | 28.63001 | 11407 ft | 306 kts | 338° |
| 2026-05-05 08:03 | 41.55186 | 28.61959 | 11741 ft | 319 kts | 351° |
| 2026-05-05 08:03 | 41.57400 | 28.61924 | 12395 ft | 320 kts | 12° |
| 2026-05-05 08:04 | 41.59446 | 28.62975 | 13123 ft | 324 kts | 32° |
| 2026-05-05 08:04 | 41.61122 | 28.65018 | 13812 ft | 333 kts | 51° |
| 2026-05-05 08:04 | 41.62219 | 28.67782 | 14545 ft | 342 kts | 65° |
| 2026-05-05 08:04 | 41.63069 | 28.70768 | 15296 ft | 346 kts | 64° |
| 2026-05-05 08:05 | 41.64090 | 28.73682 | 16025 ft | 348 kts | 59° |
| 2026-05-05 08:05 | 41.65321 | 28.76482 | 16739 ft | 350 kts | 55° |
| 2026-05-05 08:05 | 41.66662 | 28.79224 | 17441 ft | 354 kts | 54° |
| 2026-05-05 08:05 | 41.68016 | 28.81994 | 18113 ft | 358 kts | 54° |
| 2026-05-05 08:06 | 41.69373 | 28.84811 | 18782 ft | 362 kts | 54° |
| 2026-05-05 08:06 | 41.70736 | 28.87658 | 19439 ft | 365 kts | 54° |
| 2026-05-05 08:06 | 41.72107 | 28.90523 | 20102 ft | 368 kts | 54° |
| 2026-05-05 08:06 | 41.73453 | 28.93458 | 20725 ft | 372 kts | 58° |
| 2026-05-05 08:07 | 41.74642 | 28.96569 | 21314 ft | 377 kts | 60° |
| 2026-05-05 08:07 | 41.75746 | 28.99771 | 21911 ft | 381 kts | 62° |
| 2026-05-05 08:07 | 41.76825 | 29.03026 | 22483 ft | 384 kts | 62° |
| 2026-05-05 08:07 | 41.77940 | 29.06280 | 23024 ft | 387 kts | 60° |
| 2026-05-05 08:08 | 41.79080 | 29.09559 | 23587 ft | 389 kts | 61° |
| 2026-05-05 08:08 | 41.80219 | 29.12861 | 24101 ft | 392 kts | 61° |
| 2026-05-05 08:08 | 41.81361 | 29.16187 | 24599 ft | 395 kts | 61° |
| 2026-05-05 08:08 | 41.82511 | 29.19548 | 25115 ft | 397 kts | 60° |
| 2026-05-05 08:09 | 41.83664 | 29.22925 | 25588 ft | 400 kts | 61° |
| 2026-05-05 08:09 | 41.84822 | 29.26320 | 26059 ft | 402 kts | 60° |
| 2026-05-05 08:09 | 41.85989 | 29.29744 | 26485 ft | 405 kts | 60° |
| 2026-05-05 08:09 | 41.87164 | 29.33195 | 26930 ft | 407 kts | 60° |
| 2026-05-05 08:10 | 41.88342 | 29.36655 | 27359 ft | 409 kts | 60° |
| 2026-05-05 08:10 | 41.89575 | 29.40109 | 27780 ft | 409 kts | 57° |
| 2026-05-05 08:10 | 41.91015 | 29.43331 | 28183 ft | 408 kts | 52° |
| 2026-05-05 08:10 | 41.92710 | 29.46447 | 28543 ft | 409 kts | 48° |
| 2026-05-05 08:11 | 41.94494 | 29.49352 | 28940 ft | 408 kts | 45° |
| 2026-05-05 08:11 | 41.96374 | 29.52222 | 29293 ft | 411 kts | 45° |
| 2026-05-05 08:11 | 41.98292 | 29.55151 | 29647 ft | 412 kts | 45° |
| 2026-05-05 08:11 | 42.00156 | 29.58012 | 29995 ft | 414 kts | 45° |
| 2026-05-05 08:12 | 42.02059 | 29.60939 | 30278 ft | 417 kts | 45° |
| 2026-05-05 08:12 | 42.03908 | 29.63964 | 30591 ft | 422 kts | 52° |
| 2026-05-05 08:12 | 42.05184 | 29.67540 | 31073 ft | 429 kts | 68° |
| 2026-05-05 08:12 | 42.05692 | 29.71529 | 31547 ft | 438 kts | 82° |
| 2026-05-05 08:13 | 42.05659 | 29.75645 | 31971 ft | 441 kts | 86° |
| 2026-05-05 08:13 | 42.05466 | 29.79775 | 32348 ft | 443 kts | 88° |
| 2026-05-05 08:13 | 42.05171 | 29.83894 | 32753 ft | 442 kts | 89° |
| 2026-05-05 08:13 | 42.04869 | 29.88004 | 33157 ft | 441 kts | 89° |
| 2026-05-05 08:14 | 42.04570 | 29.92102 | 33538 ft | 440 kts | 89° |
| 2026-05-05 08:14 | 42.04273 | 29.96190 | 33900 ft | 439 kts | 89° |
| 2026-05-05 08:14 | 42.03977 | 30.00273 | 34258 ft | 438 kts | 89° |
| 2026-05-05 08:14 | 42.03680 | 30.04364 | 34542 ft | 439 kts | 89° |
| 2026-05-05 08:15 | 42.03384 | 30.08456 | 34844 ft | 440 kts | 89° |
| 2026-05-05 08:15 | 42.03087 | 30.12547 | 35138 ft | 440 kts | 89° |
| 2026-05-05 08:15 | 42.02810 | 30.16647 | 35426 ft | 440 kts | 89° |
| 2026-05-05 08:15 | 42.02529 | 30.20744 | 35710 ft | 441 kts | 90° |
| 2026-05-05 08:16 | 42.02231 | 30.24852 | 35991 ft | 441 kts | 90° |
| 2026-05-05 08:16 | 42.01928 | 30.28946 | 36285 ft | 441 kts | 90° |
| 2026-05-05 08:16 | 42.01618 | 30.33062 | 36553 ft | 441 kts | 90° |
| 2026-05-05 08:16 | 42.01306 | 30.37163 | 36837 ft | 441 kts | 91° |
| 2026-05-05 08:17 | 42.00993 | 30.41263 | 37029 ft | 443 kts | 91° |
| 2026-05-05 08:17 | 42.00677 | 30.45404 | 37050 ft | 446 kts | 91° |
| 2026-05-05 08:17 | 42.00043 | 30.53698 | 37050 ft | 444 kts | 91° |
| 2026-05-05 08:18 | 41.99753 | 30.61916 | 37049 ft | 438 kts | 84° |
| 2026-05-05 08:18 | 41.99897 | 30.70119 | 37047 ft | 439 kts | 85° |
| 2026-05-05 08:19 | 41.99957 | 30.78335 | 37046 ft | 440 kts | 85° |
| 2026-05-05 08:19 | 41.99995 | 30.86560 | 37044 ft | 440 kts | 85° |
| 2026-05-05 08:20 | 42.00026 | 30.94773 | 37042 ft | 438 kts | 85° |
| 2026-05-05 08:20 | 42.00460 | 31.02866 | 37040 ft | 432 kts | 76° |
| 2026-05-05 08:21 | 42.01849 | 31.10698 | 37039 ft | 430 kts | 71° |
| 2026-05-05 08:21 | 42.03480 | 31.18418 | 37038 ft | 429 kts | 71° |
| 2026-05-05 08:22 | 42.05107 | 31.26146 | 37037 ft | 429 kts | 71° |
| 2026-05-05 08:22 | 42.06731 | 31.33893 | 37100 ft | 432 kts | 71° |
| 2026-05-05 08:23 | 42.07543 | 31.37780 | 37320 ft | 433 kts | 71° |
| 2026-05-05 08:23 | 42.08357 | 31.41678 | 37553 ft | 433 kts | 71° |
| 2026-05-05 08:23 | 42.09173 | 31.45592 | 37780 ft | 434 kts | 71° |
| 2026-05-05 08:23 | 42.10011 | 31.49499 | 37968 ft | 435 kts | 71° |
| 2026-05-05 08:24 | 42.10842 | 31.53356 | 38189 ft | 436 kts | 71° |
| 2026-05-05 08:24 | 42.11678 | 31.57287 | 38344 ft | 438 kts | 72° |
| 2026-05-05 08:24 | 42.12508 | 31.61231 | 38561 ft | 438 kts | 72° |
| 2026-05-05 08:24 | 42.13337 | 31.65190 | 38756 ft | 439 kts | 72° |
| 2026-05-05 08:25 | 42.14163 | 31.69153 | 38926 ft | 440 kts | 72° |
| 2026-05-05 08:25 | 42.14988 | 31.73128 | 39012 ft | 442 kts | 72° |
| 2026-05-05 08:25 | 42.16663 | 31.81116 | 39027 ft | 442 kts | 72° |
| 2026-05-05 08:26 | 42.18324 | 31.89077 | 39016 ft | 441 kts | 73° |
| 2026-05-05 08:26 | 42.19951 | 31.97052 | 39014 ft | 441 kts | 73° |
| 2026-05-05 08:27 | 42.21572 | 32.05053 | 39013 ft | 442 kts | 73° |
| 2026-05-05 08:27 | 42.23186 | 32.13036 | 39011 ft | 442 kts | 73° |
| 2026-05-05 08:28 | 42.24802 | 32.21028 | 39011 ft | 441 kts | 73° |
| 2026-05-05 08:28 | 42.26636 | 32.28933 | 39009 ft | 441 kts | 71° |
| 2026-05-05 08:29 | 42.28473 | 32.36829 | 39008 ft | 441 kts | 71° |
| 2026-05-05 08:30 | 42.31172 | 32.48698 | 39005 ft | 441 kts | 71° |
| 2026-05-05 08:30 | 42.32646 | 32.56727 | 39003 ft | 443 kts | 82° |
| 2026-05-05 08:31 | 42.32568 | 32.65073 | 39002 ft | 446 kts | 94° |
| 2026-05-05 08:31 | 42.31678 | 32.73367 | 39000 ft | 447 kts | 97° |
| 2026-05-05 08:32 | 42.30703 | 32.81665 | 38997 ft | 447 kts | 97° |
| 2026-05-05 08:32 | 42.29733 | 32.89956 | 38996 ft | 447 kts | 97° |
| 2026-05-05 08:33 | 42.28761 | 32.98253 | 38994 ft | 447 kts | 97° |
| 2026-05-05 08:33 | 42.27804 | 33.06559 | 38992 ft | 448 kts | 96° |
| 2026-05-05 08:34 | 42.26876 | 33.14871 | 38990 ft | 448 kts | 97° |
| 2026-05-05 08:34 | 42.25913 | 33.23192 | 38988 ft | 449 kts | 97° |
| 2026-05-05 08:35 | 42.24942 | 33.31455 | 38987 ft | 449 kts | 97° |
| 2026-05-05 08:35 | 42.23959 | 33.39832 | 38985 ft | 449 kts | 97° |
| 2026-05-05 08:36 | 42.23000 | 33.48119 | 38984 ft | 450 kts | 97° |
| 2026-05-05 08:36 | 42.21989 | 33.56458 | 38982 ft | 451 kts | 98° |
| 2026-05-05 08:37 | 42.20965 | 33.64797 | 38982 ft | 451 kts | 98° |
| 2026-05-05 08:37 | 42.19935 | 33.73157 | 38981 ft | 451 kts | 98° |
| 2026-05-05 08:38 | 42.18904 | 33.81516 | 38990 ft | 452 kts | 98° |
| 2026-05-05 08:38 | 42.17865 | 33.89875 | 39009 ft | 453 kts | 98° |
| 2026-05-05 08:39 | 42.16815 | 33.98241 | 39019 ft | 453 kts | 98° |
| 2026-05-05 08:39 | 42.15816 | 34.06614 | 39026 ft | 452 kts | 98° |
| 2026-05-05 08:40 | 42.14775 | 34.14974 | 39032 ft | 452 kts | 98° |
| 2026-05-05 08:40 | 42.13708 | 34.23331 | 39038 ft | 452 kts | 98° |
| 2026-05-05 08:41 | 42.12633 | 34.31679 | 39044 ft | 452 kts | 98° |
| 2026-05-05 08:41 | 42.11559 | 34.40014 | 39050 ft | 452 kts | 98° |
| 2026-05-05 08:42 | 42.10474 | 34.48353 | 39057 ft | 452 kts | 99° |
| 2026-05-05 08:42 | 42.09333 | 34.56666 | 39063 ft | 452 kts | 99° |
| 2026-05-05 08:43 | 42.08175 | 34.64925 | 39068 ft | 452 kts | 99° |
| 2026-05-05 08:43 | 42.07004 | 34.73224 | 39074 ft | 451 kts | 99° |
| 2026-05-05 08:44 | 42.05832 | 34.81515 | 39077 ft | 451 kts | 99° |
| 2026-05-05 08:44 | 42.04690 | 34.89814 | 39080 ft | 451 kts | 99° |
| 2026-05-05 08:45 | 42.03586 | 34.98121 | 39082 ft | 451 kts | 99° |
| 2026-05-05 08:45 | 42.02466 | 35.06435 | 39082 ft | 451 kts | 98° |
| 2026-05-05 08:46 | 42.01794 | 35.14806 | 39082 ft | 451 kts | 93° |
| 2026-05-05 08:46 | 42.01405 | 35.23226 | 39081 ft | 451 kts | 93° |
| 2026-05-05 08:47 | 42.00968 | 35.31644 | 39078 ft | 451 kts | 94° |
| 2026-05-05 08:47 | 42.00504 | 35.40068 | 39075 ft | 452 kts | 94° |
| 2026-05-05 08:48 | 42.00026 | 35.48498 | 39071 ft | 452 kts | 94° |
| 2026-05-05 08:48 | 41.99565 | 35.56957 | 39066 ft | 455 kts | 94° |
| 2026-05-05 08:49 | 41.99203 | 35.64021 | 39063 ft | 456 kts | 94° |
| 2026-05-05 08:49 | 41.98660 | 35.73866 | 39056 ft | 454 kts | 94° |
| 2026-05-05 08:50 | 41.98175 | 35.82317 | 39052 ft | 454 kts | 94° |
| 2026-05-05 08:50 | 41.97761 | 35.89405 | 39047 ft | 454 kts | 94° |
| 2026-05-05 08:51 | 41.97262 | 35.97814 | 39043 ft | 454 kts | 94° |
| 2026-05-05 08:51 | 41.96751 | 36.06325 | 39039 ft | 454 kts | 94° |
| 2026-05-05 08:52 | 41.96236 | 36.14779 | 39036 ft | 454 kts | 95° |
| 2026-05-05 08:52 | 41.95719 | 36.23170 | 39033 ft | 454 kts | 95° |
| 2026-05-05 08:53 | 41.95192 | 36.31635 | 39031 ft | 455 kts | 95° |
| 2026-05-05 08:53 | 41.94657 | 36.40105 | 39029 ft | 455 kts | 95° |
| 2026-05-05 08:54 | 41.94115 | 36.48590 | 39028 ft | 456 kts | 95° |
| 2026-05-05 08:54 | 41.93567 | 36.57086 | 39027 ft | 457 kts | 95° |
| 2026-05-05 08:55 | 41.93042 | 36.65589 | 39031 ft | 458 kts | 95° |
| 2026-05-05 08:55 | 41.92489 | 36.74118 | 39029 ft | 459 kts | 95° |
| 2026-05-05 08:56 | 41.91908 | 36.82645 | 39027 ft | 459 kts | 96° |
| 2026-05-05 08:56 | 41.91316 | 36.91185 | 39027 ft | 460 kts | 96° |
| 2026-05-05 08:57 | 41.90721 | 36.99747 | 39026 ft | 460 kts | 96° |
| 2026-05-05 08:57 | 41.90247 | 37.08320 | 39025 ft | 461 kts | 92° |
| 2026-05-05 08:58 | 41.90156 | 37.16932 | 39023 ft | 462 kts | 91° |
| 2026-05-05 08:58 | 41.90036 | 37.25561 | 39022 ft | 462 kts | 92° |
| 2026-05-05 08:59 | 41.89893 | 37.34188 | 39020 ft | 462 kts | 92° |
| 2026-05-05 08:59 | 41.89736 | 37.42808 | 39017 ft | 462 kts | 92° |
| 2026-05-05 09:00 | 41.89575 | 37.51443 | 39015 ft | 463 kts | 92° |
| 2026-05-05 09:00 | 41.89474 | 37.60076 | 39013 ft | 463 kts | 92° |
| 2026-05-05 09:01 | 41.89337 | 37.68645 | 39012 ft | 462 kts | 92° |
| 2026-05-05 09:01 | 41.89179 | 37.77280 | 39011 ft | 462 kts | 92° |
| 2026-05-05 09:02 | 41.89010 | 37.85899 | 39010 ft | 462 kts | 92° |
| 2026-05-05 09:02 | 41.88832 | 37.94528 | 39009 ft | 462 kts | 92° |
| 2026-05-05 09:03 | 41.88648 | 38.03147 | 39007 ft | 462 kts | 92° |
| 2026-05-05 09:03 | 41.88456 | 38.11768 | 39005 ft | 462 kts | 92° |
| 2026-05-05 09:04 | 41.88258 | 38.20395 | 39005 ft | 462 kts | 92° |
| 2026-05-05 09:04 | 41.88053 | 38.29023 | 38999 ft | 463 kts | 93° |
| 2026-05-05 09:05 | 41.87841 | 38.37652 | 38998 ft | 463 kts | 93° |
| 2026-05-05 09:05 | 41.87733 | 38.41984 | 38838 ft | 466 kts | 93° |
| 2026-05-05 09:05 | 41.87622 | 38.46327 | 38442 ft | 465 kts | 93° |
| 2026-05-05 09:05 | 41.87511 | 38.50653 | 37761 ft | 464 kts | 93° |
| 2026-05-05 09:06 | 41.87397 | 38.54989 | 37080 ft | 464 kts | 93° |
| 2026-05-05 09:06 | 41.87282 | 38.59310 | 36394 ft | 464 kts | 93° |
| 2026-05-05 09:06 | 41.87166 | 38.63640 | 35692 ft | 464 kts | 93° |
| 2026-05-05 09:06 | 41.87048 | 38.67964 | 34978 ft | 463 kts | 93° |
| 2026-05-05 09:07 | 41.86929 | 38.72260 | 34441 ft | 459 kts | 93° |
| 2026-05-05 09:07 | 41.86810 | 38.76514 | 33921 ft | 453 kts | 94° |
| 2026-05-05 09:07 | 41.86690 | 38.80718 | 33408 ft | 448 kts | 94° |
| 2026-05-05 09:07 | 41.86571 | 38.84868 | 32903 ft | 444 kts | 94° |
| 2026-05-05 09:08 | 41.86451 | 38.88985 | 32403 ft | 439 kts | 94° |
| 2026-05-05 09:08 | 41.86331 | 38.93048 | 31911 ft | 434 kts | 94° |
| 2026-05-05 09:08 | 41.86211 | 38.97078 | 31424 ft | 430 kts | 94° |
| 2026-05-05 09:08 | 41.86090 | 39.01066 | 30945 ft | 426 kts | 94° |
| 2026-05-05 09:09 | 41.85970 | 39.05011 | 30473 ft | 421 kts | 94° |
| 2026-05-05 09:09 | 41.85854 | 39.08911 | 30009 ft | 417 kts | 94° |
| 2026-05-05 09:09 | 41.85759 | 39.12787 | 29555 ft | 414 kts | 94° |
| 2026-05-05 09:09 | 41.85648 | 39.16625 | 29098 ft | 410 kts | 94° |
| 2026-05-05 09:10 | 41.85528 | 39.20428 | 28643 ft | 406 kts | 95° |
| 2026-05-05 09:10 | 41.85404 | 39.24150 | 28196 ft | 403 kts | 95° |
| 2026-05-05 09:10 | 41.85275 | 39.27935 | 27743 ft | 400 kts | 95° |
| 2026-05-05 09:10 | 41.85148 | 39.31602 | 27300 ft | 397 kts | 95° |
| 2026-05-05 09:11 | 41.85020 | 39.35285 | 26853 ft | 394 kts | 95° |
| 2026-05-05 09:11 | 41.84891 | 39.38941 | 26408 ft | 391 kts | 95° |
| 2026-05-05 09:11 | 41.84764 | 39.42571 | 25964 ft | 389 kts | 94° |
| 2026-05-05 09:11 | 41.84637 | 39.46185 | 25519 ft | 386 kts | 94° |
| 2026-05-05 09:12 | 41.84511 | 39.49768 | 25075 ft | 384 kts | 94° |
| 2026-05-05 09:12 | 41.84386 | 39.53329 | 24634 ft | 381 kts | 94° |
| 2026-05-05 09:12 | 41.84259 | 39.56868 | 24196 ft | 379 kts | 94° |
| 2026-05-05 09:12 | 41.84130 | 39.60397 | 23756 ft | 377 kts | 94° |
| 2026-05-05 09:13 | 41.84001 | 39.63895 | 23320 ft | 375 kts | 94° |
| 2026-05-05 09:13 | 41.83871 | 39.67373 | 22888 ft | 373 kts | 94° |
| 2026-05-05 09:13 | 41.83756 | 39.70840 | 22457 ft | 370 kts | 93° |
| 2026-05-05 09:13 | 41.83659 | 39.74280 | 22025 ft | 368 kts | 94° |
| 2026-05-05 09:14 | 41.83546 | 39.77692 | 21594 ft | 366 kts | 94° |
| 2026-05-05 09:14 | 41.83423 | 39.81095 | 21167 ft | 363 kts | 94° |
| 2026-05-05 09:14 | 41.83295 | 39.84467 | 20745 ft | 361 kts | 94° |
| 2026-05-05 09:14 | 41.83164 | 39.87820 | 20323 ft | 359 kts | 95° |
| 2026-05-05 09:15 | 41.83033 | 39.91146 | 19904 ft | 356 kts | 95° |
| 2026-05-05 09:15 | 41.82900 | 39.94454 | 19488 ft | 354 kts | 95° |
| 2026-05-05 09:15 | 41.82769 | 39.97736 | 19075 ft | 352 kts | 95° |
| 2026-05-05 09:15 | 41.82637 | 40.00996 | 18665 ft | 349 kts | 95° |
| 2026-05-05 09:16 | 41.82506 | 40.04237 | 18258 ft | 347 kts | 95° |
| 2026-05-05 09:16 | 41.82376 | 40.07455 | 17854 ft | 344 kts | 95° |
| 2026-05-05 09:16 | 41.82248 | 40.10649 | 17452 ft | 342 kts | 95° |
| 2026-05-05 09:16 | 41.82119 | 40.13823 | 17052 ft | 340 kts | 95° |
| 2026-05-05 09:17 | 41.81989 | 40.16978 | 16653 ft | 338 kts | 95° |
| 2026-05-05 09:17 | 41.81858 | 40.20113 | 16257 ft | 336 kts | 95° |
| 2026-05-05 09:17 | 41.81738 | 40.23181 | 15869 ft | 334 kts | 94° |
| 2026-05-05 09:17 | 41.81634 | 40.26281 | 15477 ft | 332 kts | 94° |
| 2026-05-05 09:18 | 41.81519 | 40.29364 | 15087 ft | 330 kts | 95° |
| 2026-05-05 09:18 | 41.81394 | 40.32423 | 14698 ft | 328 kts | 95° |
| 2026-05-05 09:18 | 41.81264 | 40.35502 | 14306 ft | 326 kts | 95° |
| 2026-05-05 09:18 | 41.81135 | 40.38486 | 13926 ft | 324 kts | 95° |
| 2026-05-05 09:19 | 41.81002 | 40.41498 | 13542 ft | 323 kts | 95° |
| 2026-05-05 09:19 | 41.80869 | 40.44494 | 13159 ft | 321 kts | 95° |
| 2026-05-05 09:19 | 41.80736 | 40.47470 | 12778 ft | 319 kts | 95° |
| 2026-05-05 09:19 | 41.80603 | 40.50438 | 12400 ft | 318 kts | 95° |
| 2026-05-05 09:20 | 41.80470 | 40.53383 | 12024 ft | 316 kts | 95° |
| 2026-05-05 09:20 | 41.80337 | 40.56314 | 11649 ft | 315 kts | 95° |
| 2026-05-05 09:20 | 41.80205 | 40.59235 | 11274 ft | 313 kts | 94° |
| 2026-05-05 09:20 | 41.80075 | 40.62136 | 10900 ft | 312 kts | 94° |
| 2026-05-05 09:21 | 41.79944 | 40.65032 | 10527 ft | 310 kts | 94° |
| 2026-05-05 09:21 | 41.79837 | 40.67894 | 10194 ft | 306 kts | 92° |
| 2026-05-05 09:21 | 41.79804 | 40.70696 | 10107 ft | 294 kts | 91° |
| 2026-05-05 09:21 | 41.79796 | 40.73383 | 10039 ft | 283 kts | 91° |
| 2026-05-05 09:22 | 41.79782 | 40.75975 | 9936 ft | 274 kts | 91° |
| 2026-05-05 09:22 | 41.79763 | 40.78520 | 9645 ft | 272 kts | 91° |
| 2026-05-05 09:22 | 41.79740 | 40.81045 | 9343 ft | 271 kts | 91° |
| 2026-05-05 09:22 | 41.79715 | 40.83561 | 9041 ft | 269 kts | 91° |
| 2026-05-05 09:23 | 41.79688 | 40.86066 | 8736 ft | 268 kts | 91° |
| 2026-05-05 09:23 | 41.79664 | 40.88564 | 8430 ft | 267 kts | 91° |
| 2026-05-05 09:23 | 41.79665 | 40.91048 | 8123 ft | 266 kts | 91° |
| 2026-05-05 09:23 | 41.79657 | 40.93518 | 7818 ft | 265 kts | 91° |
| 2026-05-05 09:24 | 41.79639 | 40.95980 | 7513 ft | 264 kts | 91° |
| 2026-05-05 09:24 | 41.79616 | 40.98429 | 7206 ft | 262 kts | 91° |
| 2026-05-05 09:24 | 41.79588 | 41.00872 | 6898 ft | 261 kts | 91° |
| 2026-05-05 09:24 | 41.79558 | 41.03298 | 6588 ft | 260 kts | 91° |
| 2026-05-05 09:25 | 41.79525 | 41.05721 | 6277 ft | 259 kts | 92° |
| 2026-05-05 09:25 | 41.79492 | 41.08131 | 5966 ft | 258 kts | 92° |
| 2026-05-05 09:25 | 41.79458 | 41.10533 | 5654 ft | 257 kts | 92° |
| 2026-05-05 09:25 | 41.79423 | 41.12927 | 5340 ft | 256 kts | 91° |
| 2026-05-05 09:26 | 41.79388 | 41.15276 | 5030 ft | 255 kts | 91° |
| 2026-05-05 09:26 | 41.79352 | 41.17682 | 4710 ft | 254 kts | 91° |
| 2026-05-05 09:26 | 41.79317 | 41.20047 | 4393 ft | 253 kts | 91° |
| 2026-05-05 09:26 | 41.79281 | 41.22405 | 4075 ft | 253 kts | 91° |
| 2026-05-05 09:27 | 41.79247 | 41.24721 | 3761 ft | 252 kts | 91° |
| 2026-05-05 09:27 | 41.79212 | 41.27060 | 3464 ft | 250 kts | 91° |
| 2026-05-05 09:27 | 41.79178 | 41.29337 | 3368 ft | 239 kts | 91° |
| 2026-05-05 09:27 | 41.78967 | 41.31486 | 3288 ft | 228 kts | 107° |
| 2026-05-05 09:28 | 41.78274 | 41.33356 | 3077 ft | 222 kts | 124° |
| 2026-05-05 09:28 | 41.77312 | 41.34953 | 2795 ft | 216 kts | 130° |
| 2026-05-05 09:28 | 41.76337 | 41.36410 | 2528 ft | 203 kts | 131° |
| 2026-05-05 09:28 | 41.75445 | 41.37754 | 2411 ft | 183 kts | 131° |
| 2026-05-05 09:29 | 41.74651 | 41.38962 | 2350 ft | 162 kts | 131° |
| 2026-05-05 09:29 | 41.73942 | 41.40049 | 2313 ft | 150 kts | 131° |
| 2026-05-05 09:29 | 41.73269 | 41.41083 | 2311 ft | 145 kts | 131° |
| 2026-05-05 09:29 | 41.72610 | 41.42097 | 2272 ft | 144 kts | 131° |
| 2026-05-05 09:30 | 41.71950 | 41.43113 | 2228 ft | 145 kts | 131° |
| 2026-05-05 09:30 | 41.71291 | 41.44129 | 2185 ft | 144 kts | 131° |
| 2026-05-05 09:30 | 41.70635 | 41.45140 | 2144 ft | 144 kts | 131° |
| 2026-05-05 09:30 | 41.69977 | 41.46154 | 2105 ft | 144 kts | 131° |
| 2026-05-05 09:31 | 41.69321 | 41.47164 | 2067 ft | 144 kts | 131° |
| 2026-05-05 09:31 | 41.68664 | 41.48176 | 2019 ft | 144 kts | 131° |
| 2026-05-05 09:31 | 41.68008 | 41.49187 | 1948 ft | 144 kts | 131° |
| 2026-05-05 09:31 | 41.67349 | 41.50201 | 1783 ft | 144 kts | 132° |
| 2026-05-05 09:32 | 41.66695 | 41.51208 | 1590 ft | 143 kts | 132° |
| 2026-05-05 09:32 | 41.66041 | 41.52215 | 1398 ft | 143 kts | 132° |
| 2026-05-05 09:32 | 41.65389 | 41.53218 | 1208 ft | 144 kts | 133° |
| 2026-05-05 09:32 | 41.64732 | 41.54228 | 1018 ft | 144 kts | 133° |
| 2026-05-05 09:33 | 41.64075 | 41.55252 | 841 ft | 146 kts | 133° |
| 2026-05-05 09:33 | 41.63413 | 41.56282 | 642 ft | 146 kts | 133° |
| 2026-05-05 09:33 | 41.62739 | 41.57301 | 424 ft | 145 kts | 134° |
| 2026-05-05 09:33 | 41.62088 | 41.58301 | 253 ft | 142 kts | 134° |
| 2026-05-05 09:34 | 41.61449 | 41.59276 | 122 ft | 134 kts | 134° |
| 2026-05-05 09:34 | 41.60929 | 41.60071 | 113 ft | 82 kts | 131° |
| 2026-05-05 09:34 | 41.60662 | 41.60484 | 113 ft | 46 kts | 130° |
| 2026-05-05 09:34 | 41.60514 | 41.60717 | 113 ft | 15 kts | 129° |
| 2026-05-05 09:35 | 41.60493 | 41.60816 | 113 ft | 12 kts | 76° |
| 2026-05-05 09:35 | 41.60535 | 41.61006 | 113 ft | 7 kts | 61° |
| 2026-05-05 09:35 | 41.60575 | 41.60993 | 113 ft | 7 kts | 315° |
| 2026-05-05 09:36 | 41.60611 | 41.60951 | 113 ft | 7 kts | 330° |
| 2026-05-05 09:36 | 41.60640 | 41.60969 | 113 ft | 3 kts | 79° |
| 2026-05-05 09:36 | 41.60642 | 41.60998 | 113 ft | 3 kts | 92° |
| 2026-05-05 09:36 | 41.60641 | 41.61009 | 113 ft | 0 kts | 91° |
| 2026-05-05 09:37 | 41.60641 | 41.61011 | 113 ft | 0 kts | 91° |